CNL weather

Las Cañas Airport
Candelaria, Valle del Cauca Department, Colombia

Public forecast

Using degrees Celsius for public forecast. Weather courtesy of forecast.io.

Closest aviation weather report (METAR) to Las Cañas Airport

Closest report is Alfonso Bonilla Aragon International Airport, 14.3 nm (26.5 km) N. Retrieved 2020/02/22 00:00 UTC (16 minutes ago):

SKCL 220000Z 21006KT 200V320 9999 VCSH SCT020 BKN100 26/19 A2996 TEMPO DZ RMK VCSH/SW

Closest aviation forecast (TAF) to Las Cañas Airport

Closest forecast is Alfonso Bonilla Aragon International Airport, 14.3 nm (26.5 km) N. Retrieved 2020-02-22 00:40 UTC (0 seconds ago):

TAF SKCL 212230Z 2200/2224 18007KT 9999 SCT020 BKN090 BECMG 2202/2204 VRB03KT TEMPO 2205/2207 6000 DZRA SCT017 BKN090 TX29/2219Z TN19/2210Z